sensor_id;sensor_type;location;lat;lon;timestamp;temperature;humidity
45849;DHT22;31567;54.600;9.842;2023-03-01T00:01:59;4.50;99.90
45849;DHT22;31567;54.600;9.842;2023-03-01T00:05:44;4.50;99.90
45849;DHT22;31567;54.600;9.842;2023-03-01T00:09:24;4.40;99.90
45849;DHT22;31567;54.600;9.842;2023-03-01T00:13:04;4.40;99.90
45849;DHT22;31567;54.600;9.842;2023-03-01T00:16:45;4.40;99.90
45849;DHT22;31567;54.600;9.842;2023-03-01T00:20:24;4.30;99.90
45849;DHT22;31567;54.600;9.842;2023-03-01T00:24:04;4.20;99.90
45849;DHT22;31567;54.600;9.842;2023-03-01T00:27:44;4.30;99.90
45849;DHT22;31567;54.600;9.842;2023-03-01T00:31:28;4.20;99.90
45849;DHT22;31567;54.600;9.842;2023-03-01T00:35:08;4.20;99.90
45849;DHT22;31567;54.600;9.842;2023-03-01T00:38:48;4.20;99.90
45849;DHT22;31567;54.600;9.842;2023-03-01T00:42:27;4.20;99.90
45849;DHT22;31567;54.600;9.842;2023-03-01T00:46:12;4.20;99.90
45849;DHT22;31567;54.600;9.842;2023-03-01T00:49:52;4.20;99.90
45849;DHT22;31567;54.600;9.842;2023-03-01T00:53:32;4.20;99.90
45849;DHT22;31567;54.600;9.842;2023-03-01T00:57:11;4.10;99.90
45849;DHT22;31567;54.600;9.842;2023-03-01T01:00:51;4.20;99.90
45849;DHT22;31567;54.600;9.842;2023-03-01T01:04:31;4.10;99.90
45849;DHT22;31567;54.600;9.842;2023-03-01T01:08:11;4.10;99.90
45849;DHT22;31567;54.600;9.842;2023-03-01T01:11:51;4.20;99.90
45849;DHT22;31567;54.600;9.842;2023-03-01T01:15:34;4.10;99.90
45849;DHT22;31567;54.600;9.842;2023-03-01T01:19:15;4.00;99.90
45849;DHT22;31567;54.600;9.842;2023-03-01T01:22:54;3.90;99.90
45849;DHT22;31567;54.600;9.842;2023-03-01T01:26:34;3.80;99.90
45849;DHT22;31567;54.600;9.842;2023-03-01T01:30:14;3.70;99.90
45849;DHT22;31567;54.600;9.842;2023-03-01T01:33:56;3.60;99.90
45849;DHT22;31567;54.600;9.842;2023-03-01T01:37:35;3.50;99.90
45849;DHT22;31567;54.600;9.842;2023-03-01T01:41:16;3.40;99.90
45849;DHT22;31567;54.600;9.842;2023-03-01T01:45:24;3.50;99.90
45849;DHT22;31567;54.600;9.842;2023-03-01T01:49:11;3.40;99.90
45849;DHT22;31567;54.600;9.842;2023-03-01T01:52:55;3.40;99.90
45849;DHT22;31567;54.600;9.842;2023-03-01T01:56:36;3.30;99.90
45849;DHT22;31567;54.600;9.842;2023-03-01T02:00:19;3.30;99.90
45849;DHT22;31567;54.600;9.842;2023-03-01T02:03:59;3.30;99.90
45849;DHT22;31567;54.600;9.842;2023-03-01T02:07:39;3.30;99.90
45849;DHT22;31567;54.600;9.842;2023-03-01T02:11:20;3.30;99.90
45849;DHT22;31567;54.600;9.842;2023-03-01T02:15:00;3.20;99.90
45849;DHT22;31567;54.600;9.842;2023-03-01T02:18:40;3.20;99.90
45849;DHT22;31567;54.600;9.842;2023-03-01T02:22:31;3.10;99.90
45849;DHT22;31567;54.600;9.842;2023-03-01T02:29:56;3.10;99.90
45849;DHT22;31567;54.600;9.842;2023-03-01T02:33:38;3.10;99.90
45849;DHT22;31567;54.600;9.842;2023-03-01T02:37:19;3.10;99.90
45849;DHT22;31567;54.600;9.842;2023-03-01T02:41:01;3.10;99.90
45849;DHT22;31567;54.600;9.842;2023-03-01T02:44:41;3.10;99.90
45849;DHT22;31567;54.600;9.842;2023-03-01T02:48:21;3.10;99.90
45849;DHT22;31567;54.600;9.842;2023-03-01T02:55:58;3.10;99.90
45849;DHT22;31567;54.600;9.842;2023-03-01T02:59:39;3.10;99.90
45849;DHT22;31567;54.600;9.842;2023-03-01T03:03:20;3.10;99.90
45849;DHT22;31567;54.600;9.842;2023-03-01T03:07:01;3.10;99.90
45849;DHT22;31567;54.600;9.842;2023-03-01T03:10:42;3.00;99.90
45849;DHT22;31567;54.600;9.842;2023-03-01T03:14:22;3.10;99.90
45849;DHT22;31567;54.600;9.842;2023-03-01T03:18:05;3.00;99.90
45849;DHT22;31567;54.600;9.842;2023-03-01T03:21:45;3.00;99.90
45849;DHT22;31567;54.600;9.842;2023-03-01T03:25:27;3.00;99.90
45849;DHT22;31567;54.600;9.842;2023-03-01T03:29:07;3.00;99.90
45849;DHT22;31567;54.600;9.842;2023-03-01T03:32:47;2.90;99.90
45849;DHT22;31567;54.600;9.842;2023-03-01T03:36:31;2.90;99.90
45849;DHT22;31567;54.600;9.842;2023-03-01T03:40:11;2.90;99.90
45849;DHT22;31567;54.600;9.842;2023-03-01T03:43:54;2.90;99.90
45849;DHT22;31567;54.600;9.842;2023-03-01T03:47:34;2.80;99.90
45849;DHT22;31567;54.600;9.842;2023-03-01T03:51:15;2.70;99.90
45849;DHT22;31567;54.600;9.842;2023-03-01T03:54:55;2.70;99.90
45849;DHT22;31567;54.600;9.842;2023-03-01T03:58:35;2.60;99.90
45849;DHT22;31567;54.600;9.842;2023-03-01T04:02:14;2.60;99.90
45849;DHT22;31567;54.600;9.842;2023-03-01T04:06:01;2.60;99.90
45849;DHT22;31567;54.600;9.842;2023-03-01T04:09:42;2.50;99.90
45849;DHT22;31567;54.600;9.842;2023-03-01T04:13:22;2.40;99.90
45849;DHT22;31567;54.600;9.842;2023-03-01T04:17:04;2.40;99.90
45849;DHT22;31567;54.600;9.842;2023-03-01T04:20:45;2.40;99.90
45849;DHT22;31567;54.600;9.842;2023-03-01T04:24:24;2.30;99.90
45849;DHT22;31567;54.600;9.842;2023-03-01T04:28:05;2.30;99.90
45849;DHT22;31567;54.600;9.842;2023-03-01T04:31:44;2.20;99.90
45849;DHT22;31567;54.600;9.842;2023-03-01T04:35:24;2.20;99.90
45849;DHT22;31567;54.600;9.842;2023-03-01T04:39:04;2.20;99.90
45849;DHT22;31567;54.600;9.842;2023-03-01T04:42:51;2.10;99.90
45849;DHT22;31567;54.600;9.842;2023-03-01T04:46:31;2.10;99.90
45849;DHT22;31567;54.600;9.842;2023-03-01T04:50:12;2.00;99.90
45849;DHT22;31567;54.600;9.842;2023-03-01T04:53:52;2.00;99.90
45849;DHT22;31567;54.600;9.842;2023-03-01T04:57:31;2.00;99.90
45849;DHT22;31567;54.600;9.842;2023-03-01T05:01:16;2.00;99.90
45849;DHT22;31567;54.600;9.842;2023-03-01T05:04:56;1.90;99.90
45849;DHT22;31567;54.600;9.842;2023-03-01T05:08:40;1.90;99.90
45849;DHT22;31567;54.600;9.842;2023-03-01T05:12:20;1.90;99.90
45849;DHT22;31567;54.600;9.842;2023-03-01T05:16:01;1.90;99.90
45849;DHT22;31567;54.600;9.842;2023-03-01T05:19:41;1.80;99.90
45849;DHT22;31567;54.600;9.842;2023-03-01T05:23:22;1.80;99.90
45849;DHT22;31567;54.600;9.842;2023-03-01T05:27:02;1.80;99.90
45849;DHT22;31567;54.600;9.842;2023-03-01T05:30:42;1.80;99.90
45849;DHT22;31567;54.600;9.842;2023-03-01T05:34:25;1.80;99.90
45849;DHT22;31567;54.600;9.842;2023-03-01T05:38:05;1.80;99.90
45849;DHT22;31567;54.600;9.842;2023-03-01T05:41:45;1.80;99.90
45849;DHT22;31567;54.600;9.842;2023-03-01T05:45:26;1.80;99.90
45849;DHT22;31567;54.600;9.842;2023-03-01T05:49:06;1.80;99.90
45849;DHT22;31567;54.600;9.842;2023-03-01T05:52:50;1.80;99.90
45849;DHT22;31567;54.600;9.842;2023-03-01T05:56:32;1.80;99.90
45849;DHT22;31567;54.600;9.842;2023-03-01T06:00:13;1.70;99.90
45849;DHT22;31567;54.600;9.842;2023-03-01T06:03:54;1.70;99.90
45849;DHT22;31567;54.600;9.842;2023-03-01T06:07:34;1.70;99.90
45849;DHT22;31567;54.600;9.842;2023-03-01T06:11:15;1.60;99.90
45849;DHT22;31567;54.600;9.842;2023-03-01T06:14:55;1.60;99.90
45849;DHT22;31567;54.600;9.842;2023-03-01T06:18:35;1.60;99.90
45849;DHT22;31567;54.600;9.842;2023-03-01T06:22:14;1.60;99.90
45849;DHT22;31567;54.600;9.842;2023-03-01T06:25:54;1.60;99.90
45849;DHT22;31567;54.600;9.842;2023-03-01T06:29:34;1.60;99.90
45849;DHT22;31567;54.600;9.842;2023-03-01T06:33:13;1.60;99.90
45849;DHT22;31567;54.600;9.842;2023-03-01T06:36:53;1.60;99.90
45849;DHT22;31567;54.600;9.842;2023-03-01T06:40:33;1.60;99.90
45849;DHT22;31567;54.600;9.842;2023-03-01T06:44:14;1.60;99.90
45849;DHT22;31567;54.600;9.842;2023-03-01T06:48:01;1.60;99.90
45849;DHT22;31567;54.600;9.842;2023-03-01T06:51:42;1.60;99.90
45849;DHT22;31567;54.600;9.842;2023-03-01T06:55:21;1.60;99.90
45849;DHT22;31567;54.600;9.842;2023-03-01T06:59:01;1.60;99.90
45849;DHT22;31567;54.600;9.842;2023-03-01T07:02:41;1.60;99.90
45849;DHT22;31567;54.600;9.842;2023-03-01T07:06:22;1.50;99.90
45849;DHT22;31567;54.600;9.842;2023-03-01T07:10:01;1.50;99.90
45849;DHT22;31567;54.600;9.842;2023-03-01T07:13:41;1.50;99.90
45849;DHT22;31567;54.600;9.842;2023-03-01T07:17:21;1.50;99.90
45849;DHT22;31567;54.600;9.842;2023-03-01T07:21:08;1.50;99.90
45849;DHT22;31567;54.600;9.842;2023-03-01T07:24:47;1.40;99.90
45849;DHT22;31567;54.600;9.842;2023-03-01T07:28:27;1.40;99.90
45849;DHT22;31567;54.600;9.842;2023-03-01T07:32:07;1.50;99.90
45849;DHT22;31567;54.600;9.842;2023-03-01T07:35:46;1.50;99.90
45849;DHT22;31567;54.600;9.842;2023-03-01T07:39:26;1.50;99.90
45849;DHT22;31567;54.600;9.842;2023-03-01T07:43:05;1.50;99.90
45849;DHT22;31567;54.600;9.842;2023-03-01T07:46:45;1.60;99.90
45849;DHT22;31567;54.600;9.842;2023-03-01T07:50:24;1.70;99.90
45849;DHT22;31567;54.600;9.842;2023-03-01T07:54:04;1.70;99.90
45849;DHT22;31567;54.600;9.842;2023-03-01T07:57:44;1.70;99.90
45849;DHT22;31567;54.600;9.842;2023-03-01T08:01:23;1.70;99.90
45849;DHT22;31567;54.600;9.842;2023-03-01T08:05:03;1.70;99.90
45849;DHT22;31567;54.600;9.842;2023-03-01T08:08:44;1.80;99.90
45849;DHT22;31567;54.600;9.842;2023-03-01T08:12:23;1.80;99.90
45849;DHT22;31567;54.600;9.842;2023-03-01T08:16:09;1.90;99.90
45849;DHT22;31567;54.600;9.842;2023-03-01T08:19:49;1.90;99.90
45849;DHT22;31567;54.600;9.842;2023-03-01T08:23:29;1.90;99.90
45849;DHT22;31567;54.600;9.842;2023-03-01T08:27:09;1.90;99.90
45849;DHT22;31567;54.600;9.842;2023-03-01T08:30:49;1.90;99.90
45849;DHT22;31567;54.600;9.842;2023-03-01T08:34:28;1.90;99.90
45849;DHT22;31567;54.600;9.842;2023-03-01T08:38:08;1.90;99.90
45849;DHT22;31567;54.600;9.842;2023-03-01T08:41:48;2.10;99.90
45849;DHT22;31567;54.600;9.842;2023-03-01T08:45:27;2.20;99.90
45849;DHT22;31567;54.600;9.842;2023-03-01T08:49:09;2.30;99.90
45849;DHT22;31567;54.600;9.842;2023-03-01T08:52:50;2.20;99.90
45849;DHT22;31567;54.600;9.842;2023-03-01T08:56:30;2.20;99.90
45849;DHT22;31567;54.600;9.842;2023-03-01T09:00:10;2.10;99.90
45849;DHT22;31567;54.600;9.842;2023-03-01T09:03:50;2.00;99.90
45849;DHT22;31567;54.600;9.842;2023-03-01T09:07:30;2.10;99.90
45849;DHT22;31567;54.600;9.842;2023-03-01T09:11:12;2.00;99.90
45849;DHT22;31567;54.600;9.842;2023-03-01T09:14:52;2.00;99.90
45849;DHT22;31567;54.600;9.842;2023-03-01T09:18:33;2.10;99.90
45849;DHT22;31567;54.600;9.842;2023-03-01T09:22:12;2.20;99.90
45849;DHT22;31567;54.600;9.842;2023-03-01T09:25:52;2.00;99.90
45849;DHT22;31567;54.600;9.842;2023-03-01T09:29:32;2.00;99.90
45849;DHT22;31567;54.600;9.842;2023-03-01T09:33:11;2.10;99.90
45849;DHT22;31567;54.600;9.842;2023-03-01T09:36:53;2.20;99.90
45849;DHT22;31567;54.600;9.842;2023-03-01T09:40:33;2.40;99.90
45849;DHT22;31567;54.600;9.842;2023-03-01T09:44:39;2.60;99.90
45849;DHT22;31567;54.600;9.842;2023-03-01T09:48:24;2.50;99.90
45849;DHT22;31567;54.600;9.842;2023-03-01T09:52:33;2.70;99.90
45849;DHT22;31567;54.600;9.842;2023-03-01T10:00:41;3.00;99.90
45849;DHT22;31567;54.600;9.842;2023-03-01T10:04:26;3.00;99.90
45849;DHT22;31567;54.600;9.842;2023-03-01T10:12:11;3.40;99.90
45849;DHT22;31567;54.600;9.842;2023-03-01T10:15:55;3.40;99.90
45849;DHT22;31567;54.600;9.842;2023-03-01T10:19:40;3.50;99.90
45849;DHT22;31567;54.600;9.842;2023-03-01T10:23:23;3.60;99.90
45849;DHT22;31567;54.600;9.842;2023-03-01T10:31:00;3.50;99.90
45849;DHT22;31567;54.600;9.842;2023-03-01T10:34:40;3.60;99.90
45849;DHT22;31567;54.600;9.842;2023-03-01T10:38:20;3.60;99.90
45849;DHT22;31567;54.600;9.842;2023-03-01T10:42:03;3.70;99.90
45849;DHT22;31567;54.600;9.842;2023-03-01T10:45:42;3.80;99.90
45849;DHT22;31567;54.600;9.842;2023-03-01T10:49:23;3.90;99.90
45849;DHT22;31567;54.600;9.842;2023-03-01T10:53:04;4.00;99.90
45849;DHT22;31567;54.600;9.842;2023-03-01T10:56:50;4.10;99.90
45849;DHT22;31567;54.600;9.842;2023-03-01T11:00:32;4.10;99.90
45849;DHT22;31567;54.600;9.842;2023-03-01T11:04:13;4.20;99.90
45849;DHT22;31567;54.600;9.842;2023-03-01T11:07:58;4.30;99.90
45849;DHT22;31567;54.600;9.842;2023-03-01T11:11:38;4.10;99.90
45849;DHT22;31567;54.600;9.842;2023-03-01T11:15:27;3.90;99.90
45849;DHT22;31567;54.600;9.842;2023-03-01T11:22:59;4.20;99.90
45849;DHT22;31567;54.600;9.842;2023-03-01T11:26:43;4.30;99.90
45849;DHT22;31567;54.600;9.842;2023-03-01T11:30:30;4.40;99.90
45849;DHT22;31567;54.600;9.842;2023-03-01T11:34:14;4.40;99.90
45849;DHT22;31567;54.600;9.842;2023-03-01T11:41:49;4.30;99.90
45849;DHT22;31567;54.600;9.842;2023-03-01T11:57:42;4.10;99.90
45849;DHT22;31567;54.600;9.842;2023-03-01T12:13:27;4.20;99.90
45849;DHT22;31567;54.600;9.842;2023-03-01T12:18:05;4.10;99.90
45849;DHT22;31567;54.600;9.842;2023-03-01T12:37:29;4.30;99.90
45849;DHT22;31567;54.600;9.842;2023-03-01T12:49:28;4.50;99.90
45849;DHT22;31567;54.600;9.842;2023-03-01T12:57:15;4.80;99.90
45849;DHT22;31567;54.600;9.842;2023-03-01T13:01:16;4.90;99.90
45849;DHT22;31567;54.600;9.842;2023-03-01T13:05:24;5.10;99.90
45849;DHT22;31567;54.600;9.842;2023-03-01T13:16:40;5.10;99.90
45849;DHT22;31567;54.600;9.842;2023-03-01T13:20:45;5.10;99.90
45849;DHT22;31567;54.600;9.842;2023-03-01T13:28:35;5.10;99.90
45849;DHT22;31567;54.600;9.842;2023-03-01T13:32:38;5.20;99.90
45849;DHT22;31567;54.600;9.842;2023-03-01T13:43:57;5.30;99.90
45849;DHT22;31567;54.600;9.842;2023-03-01T13:47:38;5.30;99.90
45849;DHT22;31567;54.600;9.842;2023-03-01T13:51:23;5.10;99.90
45849;DHT22;31567;54.600;9.842;2023-03-01T13:59:12;5.10;99.90
45849;DHT22;31567;54.600;9.842;2023-03-01T14:03:05;5.10;99.90
45849;DHT22;31567;54.600;9.842;2023-03-01T14:06:45;5.10;99.90
45849;DHT22;31567;54.600;9.842;2023-03-01T14:10:49;5.10;99.90
45849;DHT22;31567;54.600;9.842;2023-03-01T14:14:44;5.20;99.90
45849;DHT22;31567;54.600;9.842;2023-03-01T14:18:32;5.10;99.90
45849;DHT22;31567;54.600;9.842;2023-03-01T14:22:22;5.20;99.90
45849;DHT22;31567;54.600;9.842;2023-03-01T14:26:02;5.20;99.90
45849;DHT22;31567;54.600;9.842;2023-03-01T14:29:43;5.10;99.90
45849;DHT22;31567;54.600;9.842;2023-03-01T14:33:34;5.10;99.90
45849;DHT22;31567;54.600;9.842;2023-03-01T14:37:19;5.20;99.90
45849;DHT22;31567;54.600;9.842;2023-03-01T14:41:02;5.20;99.90
45849;DHT22;31567;54.600;9.842;2023-03-01T14:44:44;5.30;99.90
45849;DHT22;31567;54.600;9.842;2023-03-01T14:48:26;5.30;99.90
45849;DHT22;31567;54.600;9.842;2023-03-01T14:52:31;5.20;99.90
45849;DHT22;31567;54.600;9.842;2023-03-01T14:56:15;5.20;99.90
45849;DHT22;31567;54.600;9.842;2023-03-01T15:00:02;5.00;99.90
45849;DHT22;31567;54.600;9.842;2023-03-01T15:03:47;5.10;99.90
45849;DHT22;31567;54.600;9.842;2023-03-01T15:07:30;5.10;99.90
45849;DHT22;31567;54.600;9.842;2023-03-01T15:14:53;5.30;99.90
45849;DHT22;31567;54.600;9.842;2023-03-01T15:18:34;5.30;99.90
45849;DHT22;31567;54.600;9.842;2023-03-01T15:22:15;5.30;99.90
45849;DHT22;31567;54.600;9.842;2023-03-01T15:25:56;5.40;99.90
45849;DHT22;31567;54.600;9.842;2023-03-01T15:29:36;5.20;99.90
45849;DHT22;31567;54.600;9.842;2023-03-01T15:33:28;5.20;99.90
45849;DHT22;31567;54.600;9.842;2023-03-01T15:37:43;5.40;99.90
45849;DHT22;31567;54.600;9.842;2023-03-01T15:41:45;5.40;99.90
45849;DHT22;31567;54.600;9.842;2023-03-01T15:45:28;5.30;99.90
45849;DHT22;31567;54.600;9.842;2023-03-01T15:49:38;5.10;99.90
45849;DHT22;31567;54.600;9.842;2023-03-01T15:53:19;5.00;99.90
45849;DHT22;31567;54.600;9.842;2023-03-01T15:56:58;5.00;99.90
45849;DHT22;31567;54.600;9.842;2023-03-01T16:00:38;5.00;99.90
45849;DHT22;31567;54.600;9.842;2023-03-01T16:04:18;5.10;99.90
45849;DHT22;31567;54.600;9.842;2023-03-01T16:08:03;5.20;99.90
45849;DHT22;31567;54.600;9.842;2023-03-01T16:11:43;5.20;99.90
45849;DHT22;31567;54.600;9.842;2023-03-01T16:15:23;5.10;99.90
45849;DHT22;31567;54.600;9.842;2023-03-01T16:19:03;5.00;99.90
45849;DHT22;31567;54.600;9.842;2023-03-01T16:22:43;5.00;99.90
45849;DHT22;31567;54.600;9.842;2023-03-01T16:26:23;5.00;99.90
45849;DHT22;31567;54.600;9.842;2023-03-01T16:30:04;4.90;99.90
45849;DHT22;31567;54.600;9.842;2023-03-01T16:33:43;5.00;99.90
45849;DHT22;31567;54.600;9.842;2023-03-01T16:37:32;4.80;99.90
45849;DHT22;31567;54.600;9.842;2023-03-01T16:41:17;4.60;99.90
45849;DHT22;31567;54.600;9.842;2023-03-01T16:44:57;4.60;99.90
45849;DHT22;31567;54.600;9.842;2023-03-01T16:48:38;4.60;99.90
45849;DHT22;31567;54.600;9.842;2023-03-01T16:52:18;4.70;99.90
45849;DHT22;31567;54.600;9.842;2023-03-01T16:55:58;4.80;99.90
45849;DHT22;31567;54.600;9.842;2023-03-01T16:59:38;4.70;99.90
45849;DHT22;31567;54.600;9.842;2023-03-01T17:03:17;4.60;99.90
45849;DHT22;31567;54.600;9.842;2023-03-01T17:06:57;4.70;99.90
45849;DHT22;31567;54.600;9.842;2023-03-01T17:10:36;4.80;99.90
45849;DHT22;31567;54.600;9.842;2023-03-01T17:14:16;4.90;99.90
45849;DHT22;31567;54.600;9.842;2023-03-01T17:17:56;4.90;99.90
45849;DHT22;31567;54.600;9.842;2023-03-01T17:21:36;5.00;99.90
45849;DHT22;31567;54.600;9.842;2023-03-01T17:25:16;5.00;99.90
45849;DHT22;31567;54.600;9.842;2023-03-01T17:28:56;5.10;99.90
45849;DHT22;31567;54.600;9.842;2023-03-01T17:32:35;5.20;99.90
45849;DHT22;31567;54.600;9.842;2023-03-01T17:36:15;5.30;99.90
45849;DHT22;31567;54.600;9.842;2023-03-01T17:39:55;5.10;99.90
45849;DHT22;31567;54.600;9.842;2023-03-01T17:43:34;5.00;99.90
45849;DHT22;31567;54.600;9.842;2023-03-01T17:47:14;5.00;99.90
45849;DHT22;31567;54.600;9.842;2023-03-01T17:50:53;5.10;99.90
45849;DHT22;31567;54.600;9.842;2023-03-01T17:54:34;5.20;99.90
45849;DHT22;31567;54.600;9.842;2023-03-01T17:58:14;5.00;99.90
45849;DHT22;31567;54.600;9.842;2023-03-01T18:01:53;4.90;99.90
45849;DHT22;31567;54.600;9.842;2023-03-01T18:05:36;4.80;99.90
45849;DHT22;31567;54.600;9.842;2023-03-01T18:09:16;4.60;99.90
45849;DHT22;31567;54.600;9.842;2023-03-01T18:12:56;4.50;99.90
45849;DHT22;31567;54.600;9.842;2023-03-01T18:16:35;4.70;99.90
45849;DHT22;31567;54.600;9.842;2023-03-01T18:20:17;4.70;99.90
45849;DHT22;31567;54.600;9.842;2023-03-01T18:23:57;4.70;99.90
45849;DHT22;31567;54.600;9.842;2023-03-01T18:27:40;4.80;99.90
45849;DHT22;31567;54.600;9.842;2023-03-01T18:31:21;4.80;99.90
45849;DHT22;31567;54.600;9.842;2023-03-01T18:35:00;4.80;99.90
45849;DHT22;31567;54.600;9.842;2023-03-01T18:38:40;4.80;99.90
45849;DHT22;31567;54.600;9.842;2023-03-01T18:42:20;4.70;99.90
45849;DHT22;31567;54.600;9.842;2023-03-01T18:46:00;4.80;99.90
45849;DHT22;31567;54.600;9.842;2023-03-01T18:49:40;4.70;99.90
45849;DHT22;31567;54.600;9.842;2023-03-01T18:53:19;4.60;99.90
45849;DHT22;31567;54.600;9.842;2023-03-01T18:56:59;4.70;99.90
45849;DHT22;31567;54.600;9.842;2023-03-01T19:00:38;4.80;99.90
45849;DHT22;31567;54.600;9.842;2023-03-01T19:04:18;4.90;99.90
45849;DHT22;31567;54.600;9.842;2023-03-01T19:07:57;5.00;99.90
45849;DHT22;31567;54.600;9.842;2023-03-01T19:11:37;5.00;99.90
45849;DHT22;31567;54.600;9.842;2023-03-01T19:15:16;4.90;99.90
45849;DHT22;31567;54.600;9.842;2023-03-01T19:18:59;4.80;99.90
45849;DHT22;31567;54.600;9.842;2023-03-01T19:22:39;4.60;99.90
45849;DHT22;31567;54.600;9.842;2023-03-01T19:26:25;4.60;99.90
45849;DHT22;31567;54.600;9.842;2023-03-01T19:30:06;4.50;99.90
45849;DHT22;31567;54.600;9.842;2023-03-01T19:33:46;4.40;99.90
45849;DHT22;31567;54.600;9.842;2023-03-01T19:37:25;4.40;99.90
45849;DHT22;31567;54.600;9.842;2023-03-01T19:41:07;4.50;99.90
45849;DHT22;31567;54.600;9.842;2023-03-01T19:44:47;4.50;99.90
45849;DHT22;31567;54.600;9.842;2023-03-01T19:48:28;4.50;99.90
45849;DHT22;31567;54.600;9.842;2023-03-01T19:52:07;4.50;99.90
45849;DHT22;31567;54.600;9.842;2023-03-01T19:55:47;4.60;99.90
45849;DHT22;31567;54.600;9.842;2023-03-01T19:59:28;4.70;99.90
45849;DHT22;31567;54.600;9.842;2023-03-01T20:03:07;4.80;99.90
45849;DHT22;31567;54.600;9.842;2023-03-01T20:06:47;4.90;99.90
45849;DHT22;31567;54.600;9.842;2023-03-01T20:10:29;5.00;99.90
45849;DHT22;31567;54.600;9.842;2023-03-01T20:14:09;5.00;99.90
45849;DHT22;31567;54.600;9.842;2023-03-01T20:17:50;5.00;99.90
45849;DHT22;31567;54.600;9.842;2023-03-01T20:21:30;5.10;99.90
45849;DHT22;31567;54.600;9.842;2023-03-01T20:25:11;5.20;99.90
45849;DHT22;31567;54.600;9.842;2023-03-01T20:28:53;5.20;99.90
45849;DHT22;31567;54.600;9.842;2023-03-01T20:32:33;5.10;99.90
45849;DHT22;31567;54.600;9.842;2023-03-01T20:36:14;4.90;99.90
45849;DHT22;31567;54.600;9.842;2023-03-01T20:39:54;4.80;99.90
45849;DHT22;31567;54.600;9.842;2023-03-01T20:43:34;4.70;99.90
45849;DHT22;31567;54.600;9.842;2023-03-01T20:47:14;4.70;99.90
45849;DHT22;31567;54.600;9.842;2023-03-01T20:50:54;4.60;99.90
45849;DHT22;31567;54.600;9.842;2023-03-01T20:54:35;4.60;99.90
45849;DHT22;31567;54.600;9.842;2023-03-01T20:58:14;4.70;99.90
45849;DHT22;31567;54.600;9.842;2023-03-01T21:01:54;4.60;99.90
45849;DHT22;31567;54.600;9.842;2023-03-01T21:05:34;4.60;99.90
45849;DHT22;31567;54.600;9.842;2023-03-01T21:09:13;4.70;99.90
45849;DHT22;31567;54.600;9.842;2023-03-01T21:12:53;4.80;99.90
45849;DHT22;31567;54.600;9.842;2023-03-01T21:16:32;4.80;99.90
45849;DHT22;31567;54.600;9.842;2023-03-01T21:20:13;4.70;99.90
45849;DHT22;31567;54.600;9.842;2023-03-01T21:23:54;4.80;99.90
45849;DHT22;31567;54.600;9.842;2023-03-01T21:27:37;4.90;99.90
45849;DHT22;31567;54.600;9.842;2023-03-01T21:31:25;4.90;99.90
45849;DHT22;31567;54.600;9.842;2023-03-01T21:35:10;4.90;99.90
45849;DHT22;31567;54.600;9.842;2023-03-01T21:38:50;4.80;99.90
45849;DHT22;31567;54.600;9.842;2023-03-01T21:42:30;4.80;99.90
45849;DHT22;31567;54.600;9.842;2023-03-01T21:46:14;4.80;99.90
45849;DHT22;31567;54.600;9.842;2023-03-01T21:49:54;4.80;99.90
45849;DHT22;31567;54.600;9.842;2023-03-01T21:53:34;4.70;99.90
45849;DHT22;31567;54.600;9.842;2023-03-01T21:57:14;4.70;99.90
45849;DHT22;31567;54.600;9.842;2023-03-01T22:00:54;4.60;99.90
45849;DHT22;31567;54.600;9.842;2023-03-01T22:04:34;4.50;99.90
45849;DHT22;31567;54.600;9.842;2023-03-01T22:08:13;4.50;99.90
45849;DHT22;31567;54.600;9.842;2023-03-01T22:11:55;4.50;99.90
45849;DHT22;31567;54.600;9.842;2023-03-01T22:15:40;4.50;99.90
45849;DHT22;31567;54.600;9.842;2023-03-01T22:19:21;4.40;99.90
45849;DHT22;31567;54.600;9.842;2023-03-01T22:23:01;4.20;99.90
45849;DHT22;31567;54.600;9.842;2023-03-01T22:26:42;4.10;99.90
45849;DHT22;31567;54.600;9.842;2023-03-01T22:30:22;4.10;99.90
45849;DHT22;31567;54.600;9.842;2023-03-01T22:34:02;4.00;99.90
45849;DHT22;31567;54.600;9.842;2023-03-01T22:37:42;4.00;99.90
45849;DHT22;31567;54.600;9.842;2023-03-01T22:41:22;4.00;99.90
45849;DHT22;31567;54.600;9.842;2023-03-01T22:45:01;4.10;99.90
45849;DHT22;31567;54.600;9.842;2023-03-01T22:48:41;4.30;99.90
45849;DHT22;31567;54.600;9.842;2023-03-01T22:52:20;4.30;99.90
45849;DHT22;31567;54.600;9.842;2023-03-01T22:56:10;4.40;99.90
45849;DHT22;31567;54.600;9.842;2023-03-01T22:59:49;4.40;99.90
45849;DHT22;31567;54.600;9.842;2023-03-01T23:03:29;4.50;99.90
45849;DHT22;31567;54.600;9.842;2023-03-01T23:07:08;4.60;99.90
45849;DHT22;31567;54.600;9.842;2023-03-01T23:10:48;4.60;99.90
45849;DHT22;31567;54.600;9.842;2023-03-01T23:14:29;4.50;99.90
45849;DHT22;31567;54.600;9.842;2023-03-01T23:18:10;4.40;99.90
45849;DHT22;31567;54.600;9.842;2023-03-01T23:21:49;4.40;99.90
45849;DHT22;31567;54.600;9.842;2023-03-01T23:25:29;4.30;99.90
45849;DHT22;31567;54.600;9.842;2023-03-01T23:29:08;4.30;99.90
45849;DHT22;31567;54.600;9.842;2023-03-01T23:32:48;4.10;99.90
45849;DHT22;31567;54.600;9.842;2023-03-01T23:36:32;4.00;99.90
45849;DHT22;31567;54.600;9.842;2023-03-01T23:40:12;3.90;99.90
45849;DHT22;31567;54.600;9.842;2023-03-01T23:43:54;3.90;99.90
45849;DHT22;31567;54.600;9.842;2023-03-01T23:47:34;3.90;99.90
45849;DHT22;31567;54.600;9.842;2023-03-01T23:51:15;3.90;99.90
45849;DHT22;31567;54.600;9.842;2023-03-01T23:54:56;3.70;99.90
45849;DHT22;31567;54.600;9.842;2023-03-01T23:58:35;3.60;99.90
